Time;durP1;ratioP1;P1;durP2;ratioP2;P2;SDS_P1;SDS_P2;PMS_P1;PMS_P2;Temp;Humidity;BMP_temperature;BMP_pressure;BME280_temperature;BME280_humidity;BME280_pressure;Samples;Min_cycle;Max_cycle;Signal;HPM_P1;HPM_P2
2022/01/21 00:02:11;;;;;;;;;;;;;;;-1.89;100.00;102826.63;2565883;30;137592;-36
2022/01/21 00:04:39;;;;;;;5.95;1.80;;;;;;;-1.97;100.00;102833.34;2567522;30;138101;-36
2022/01/21 00:07:07;;;;;;;9.95;1.88;;;;;;;-2.04;100.00;102843.50;2568028;30;137700;-36
2022/01/21 00:09:35;;;;;;;4.32;1.23;;;;;;;-2.11;100.00;102855.47;2567980;30;137279;-35
2022/01/21 00:12:03;;;;;;;;;;;;;;;-2.20;100.00;102844.28;2568340;30;136748;-36
2022/01/21 00:14:31;;;;;;;4.55;1.60;;;;;;;-2.31;100.00;102847.50;2568081;30;138495;-36
2022/01/21 00:16:59;;;;;;;10.75;2.13;;;;;;;-2.38;100.00;102848.75;2566088;30;137597;-36
2022/01/21 00:19:29;;;;;;;;;;;;;;;-2.49;100.00;102846.63;2567661;30;138441;-36
2022/01/21 00:30:20;;;;;;;11.90;2.63;;;;;;;-2.54;100.00;102859.34;2568644;30;138417;-36
2022/01/21 00:32:49;;;;;;;8.77;2.38;;;;;;;-2.56;100.00;102850.56;2566212;30;138102;-36
2022/01/21 00:35:18;;;;;;;11.70;2.45;;;;;;;-2.59;100.00;102853.38;2568675;30;137630;-36
2022/01/21 00:37:49;;;;;;;9.20;2.70;;;;;;;-2.58;100.00;102854.22;2570029;30;136662;-36
2022/01/21 00:40:22;;;;;;;7.97;2.25;;;;;;;-2.60;100.00;102854.31;2568474;30;137223;-36
2022/01/21 00:45:20;;;;;;;8.75;2.28;;;;;;;-2.72;100.00;102857.59;2566886;30;139757;-36
2022/01/21 00:47:48;;;;;;;11.35;2.42;;;;;;;-2.76;100.00;102856.88;2569599;30;138826;-36
2022/01/21 00:50:16;;;;;;;9.30;2.97;;;;;;;-2.83;100.00;102860.78;2569013;30;138613;-36
2022/01/21 00:52:45;;;;;;;;;;;;;;;-2.85;100.00;102874.22;2564940;30;138738;-36
2022/01/21 00:55:13;;;;;;;8.75;1.92;;;;;;;-2.87;100.00;102873.44;2567248;30;138266;-36
2022/01/21 00:57:41;;;;;;;11.35;2.05;;;;;;;-2.88;100.00;102874.38;2567166;30;137702;-36
2022/01/21 01:00:10;;;;;;;;;;;;;;;-2.86;100.00;102875.16;2569420;30;138707;-36
2022/01/21 01:02:39;;;;;;;8.32;1.90;;;;;;;-2.85;100.00;102868.00;2569372;30;137821;-41
2022/01/21 01:05:09;;;;;;;9.02;1.92;;;;;;;-2.77;100.00;102861.34;2568476;30;138189;-41
2022/01/21 01:07:37;;;;;;;7.07;1.77;;;;;;;-2.72;100.00;102868.28;2568768;30;137552;-41
2022/01/21 01:10:17;;;;;;;10.63;2.10;;;;;;;-2.65;100.00;102864.38;2566073;30;138784;-41
2022/01/21 01:12:58;;;;;;;7.43;2.10;;;;;;;-2.65;100.00;102862.56;2566994;30;137954;-41
2022/01/21 01:21:20;;;;;;;7.38;2.10;;;;;;;-2.58;100.00;102855.13;2567180;30;139201;-41
2022/01/21 01:29:18;;;;;;;8.13;2.00;;;;;;;-2.77;100.00;102848.00;2565985;30;137405;-41
2022/01/21 01:31:47;;;;;;;8.65;1.63;;;;;;;-2.79;100.00;102844.53;2566955;30;140165;-41
2022/01/21 01:34:15;;;;;;;8.65;1.95;;;;;;;-2.85;100.00;102850.19;2568431;30;137352;-41
2022/01/21 01:36:47;;;;;;;11.63;2.20;;;;;;;-2.90;100.00;102861.06;2567726;30;137956;-41
2022/01/21 01:39:31;;;;;;;8.63;1.83;;;;;;;-2.94;100.00;102853.28;2568545;30;137048;-41
2022/01/21 01:42:59;;;;;;;8.77;1.90;;;;;;;-3.00;100.00;102858.91;2567106;30;138867;-41
2022/01/21 01:50:38;;;;;;;10.10;1.90;;;;;;;-3.19;100.00;102863.34;2568126;30;138043;-41
2022/01/21 01:53:08;;;;;;;12.38;2.10;;;;;;;-3.19;100.00;102865.13;2568001;30;140562;-41
2022/01/21 01:55:37;;;;;;;9.55;2.00;;;;;;;-3.24;100.00;102868.03;2568046;30;139626;-41
2022/01/21 01:58:05;;;;;;;9.15;1.92;;;;;;;-3.24;100.00;102875.16;2568630;30;138560;-41
2022/01/21 02:00:33;;;;;;;;;;;;;;;-3.25;100.00;102863.63;2568333;30;138399;-41
2022/01/21 02:03:09;;;;;;;6.22;1.75;;;;;;;-3.26;100.00;102863.69;2568397;30;139039;-41
2022/01/21 02:05:37;;;;;;;6.15;1.70;;;;;;;-3.21;100.00;102865.22;2568503;30;138326;-41
2022/01/21 02:08:06;;;;;;;8.75;2.00;;;;;;;-3.18;100.00;102856.22;2567817;30;138189;-41
2022/01/21 02:10:36;;;;;;;8.73;1.80;;;;;;;-3.20;100.00;102866.06;2567918;30;139530;-41
2022/01/21 02:13:23;;;;;;;10.15;2.20;;;;;;;-3.21;100.00;102853.66;2568812;30;138310;-41
2022/01/21 02:16:15;;;;;;;7.68;1.85;;;;;;;-3.20;100.00;102847.38;2568370;30;138353;-41
2022/01/21 02:21:41;;;;;;;7.05;1.77;;;;;;;-3.18;100.00;102846.38;2566392;30;138961;-41
2022/01/21 02:24:12;;;;;;;11.25;2.97;;;;;;;-3.15;100.00;102844.50;2567703;30;139976;-41
2022/01/21 02:26:42;;;;;;;6.28;1.85;;;;;;;-3.10;100.00;102835.34;2568183;30;138320;-41
2022/01/21 02:29:11;;;;;;;8.15;2.15;;;;;;;-2.94;100.00;102845.25;2566884;30;140797;-41
2022/01/21 02:31:41;;;;;;;7.00;2.15;;;;;;;-2.84;100.00;102843.91;2568200;30;136895;-41
2022/01/21 02:34:09;;;;;;;10.70;2.10;;;;;;;-2.79;100.00;102860.56;2567876;30;140009;-41
2022/01/21 02:36:37;;;;;;;12.38;2.00;;;;;;;-2.75;100.00;102863.97;2567235;30;139045;-41
2022/01/21 02:39:05;;;;;;;;;;;;;;;-2.71;100.00;102867.34;2567573;30;141069;-41
2022/01/21 02:41:33;;;;;;;8.95;1.60;;;;;;;-2.70;100.00;102874.41;2567409;30;139579;-41
2022/01/21 02:44:01;;;;;;;7.95;1.90;;;;;;;-2.64;100.00;102869.63;2567349;30;138235;-41
2022/01/21 02:46:35;;;;;;;11.30;2.38;;;;;;;-2.58;100.00;102873.81;2568977;30;138581;-41
2022/01/21 02:49:03;;;;;;;12.98;1.52;;;;;;;-2.49;100.00;102875.19;2567105;30;139558;-41
2022/01/21 02:51:32;;;;;;;5.55;2.05;;;;;;;-2.43;100.00;102868.63;2567176;30;139914;-41
2022/01/21 02:54:06;;;;;;;5.78;1.67;;;;;;;-2.42;100.00;102867.69;2567481;30;139893;-41
2022/01/21 02:56:36;;;;;;;9.88;1.98;;;;;;;-2.39;100.00;102864.88;2567832;30;138658;-42
2022/01/21 02:59:06;;;;;;;7.93;2.00;;;;;;;-2.38;100.00;102871.97;2568148;30;136761;-41
2022/01/21 03:01:36;;;;;;;10.23;2.22;;;;;;;-2.40;100.00;102889.88;2567430;30;139405;-41
2022/01/21 03:04:06;;;;;;;7.35;1.70;;;;;;;-2.43;100.00;102898.03;2568404;30;138242;-41
2022/01/21 03:06:37;;;;;;;8.30;1.80;;;;;;;-2.47;100.00;102900.03;2567753;30;139690;-41
2022/01/21 03:09:09;;;;;;;7.75;1.70;;;;;;;-2.50;100.00;102901.03;2566997;30;140132;-41
2022/01/21 03:11:37;;;;;;;10.45;2.20;;;;;;;-2.55;100.00;102888.81;2563976;30;139148;-41
2022/01/21 03:14:05;;;;;;;10.15;1.75;;;;;;;-2.61;100.00;102888.19;2568781;30;139218;-41
2022/01/21 03:16:33;;;;;;;4.20;1.45;;;;;;;-2.68;100.00;102896.56;2567547;30;137767;-41
2022/01/21 03:19:01;;;;;;;;;;;;;;;-2.73;100.00;102895.94;2568792;30;138145;-41
2022/01/21 03:21:29;;;;;;;10.30;1.83;;;;;;;-2.68;100.00;102899.25;2568157;30;137710;-41
2022/01/21 03:23:57;;;;;;;6.82;1.45;;;;;;;-2.71;100.00;102894.06;2568039;30;140097;-41
2022/01/21 03:26:27;;;;;;;6.82;1.77;;;;;;;-2.76;100.00;102894.31;2566722;30;139494;-41
2022/01/21 03:28:58;;;;;;;6.75;1.75;;;;;;;-2.82;100.00;102890.09;2567482;30;139498;-41
2022/01/21 03:31:30;;;;;;;6.35;1.85;;;;;;;-2.90;100.00;102881.59;2566827;30;138730;-41
2022/01/21 03:34:00;;;;;;;8.98;1.70;;;;;;;-2.98;100.00;102887.31;2564549;30;138171;-41
2022/01/21 03:36:31;;;;;;;8.02;1.58;;;;;;;-3.07;100.00;102874.38;2564913;30;138895;-41
2022/01/21 03:39:00;;;;;;;6.18;1.55;;;;;;;-3.14;100.00;102872.94;2565431;30;139147;-41
2022/01/21 03:41:29;;;;;;;5.50;1.60;;;;;;;-3.20;100.00;102880.28;2567559;30;138635;-41
2022/01/21 03:43:58;;;;;;;7.13;1.85;;;;;;;-3.22;100.00;102876.84;2567391;30;140697;-41
2022/01/21 03:46:27;;;;;;;7.63;1.70;;;;;;;-3.24;100.00;102875.16;2567476;30;138778;-41
2022/01/21 03:48:56;;;;;;;4.85;1.52;;;;;;;-3.29;100.00;102870.06;2566556;30;138395;-41
2022/01/21 03:51:23;;;;;;;;;;;;;;;-3.32;100.00;102875.50;2568362;30;139203;-41
2022/01/21 03:53:52;;;;;;;5.03;1.48;;;;;;;-3.37;100.00;102882.88;2567017;30;140840;-41
2022/01/21 03:56:24;;;;;;;6.60;1.60;;;;;;;-3.41;100.00;102892.84;2568320;30;139466;-41
2022/01/21 03:58:55;;;;;;;4.95;1.40;;;;;;;-3.40;100.00;102891.91;2567583;30;139801;-41
2022/01/21 04:01:24;;;;;;;9.50;1.77;;;;;;;-3.36;100.00;102888.16;2567688;30;138858;-41
2022/01/21 04:03:53;;;;;;;5.80;1.67;;;;;;;-3.30;100.00;102888.81;2567665;30;139435;-41
2022/01/21 04:06:21;;;;;;;5.88;1.60;;;;;;;-3.26;100.00;102893.06;2568263;30;138894;-41
2022/01/21 04:08:48;;;;;;;;;;;;;;;-3.20;100.00;102901.66;2568171;30;138318;-41
2022/01/21 04:11:18;;;;;;;7.07;1.52;;;;;;;-3.17;100.00;102895.31;2567737;30;137080;-41
2022/01/21 04:13:46;;;;;;;4.97;1.95;;;;;;;-3.13;100.00;102886.22;2568182;30;139728;-41
2022/01/21 04:16:18;;;;;;;3.70;1.20;;;;;;;-3.09;100.00;102890.47;2565354;30;137846;-41
2022/01/21 04:18:47;;;;;;;5.70;1.50;;;;;;;-3.03;100.00;102886.66;2567506;30;140029;-41
2022/01/21 04:21:16;;;;;;;10.52;2.33;;;;;;;-3.00;100.00;102885.63;2567002;30;136937;-41
2022/01/21 04:23:44;;;;;;;4.97;1.55;;;;;;;-2.96;100.00;102896.13;2568368;30;140609;-41
2022/01/21 04:26:19;;;;;;;6.22;1.23;;;;;;;-2.89;100.00;102888.69;2568942;30;138355;-41
2022/01/21 04:28:47;;;;;;;;;;;;;;;-2.90;100.00;102881.59;2567685;30;139993;-41
2022/01/21 04:31:14;;;;;;;6.13;1.77;;;;;;;-2.89;100.00;102884.19;2566990;30;138856;-41
2022/01/21 04:33:47;;;;;;;11.35;1.90;;;;;;;-2.87;100.00;102876.09;2568122;30;139319;-41
2022/01/21 04:36:16;;;;;;;7.95;1.45;;;;;;;-2.87;100.00;102873.44;2567952;30;138803;-41
2022/01/21 04:38:44;;;;;;;;;;;;;;;-2.88;100.00;102866.38;2565240;30;138648;-41
2022/01/21 04:41:34;;;;;;;9.35;1.60;;;;;;;-2.83;100.00;102877.69;2567738;30;138603;-41
2022/01/21 04:49:37;;;;;;;8.15;1.65;;;;;;;-2.78;100.00;102882.81;2565783;30;139274;-41
2022/01/21 04:52:05;;;;;;;7.60;1.88;;;;;;;-2.75;100.00;102885.34;2568440;30;137090;-41
2022/01/21 04:55:03;;;;;;;6.95;1.55;;;;;;;-2.71;100.00;102891.38;2567908;30;137107;-41
2022/01/21 04:57:35;;;;;;;7.78;2.10;;;;;;;-2.69;100.00;102890.38;2569213;30;138813;-41
2022/01/21 05:00:06;;;;;;;7.28;1.70;;;;;;;-2.64;100.00;102898.19;2567117;30;137336;-41
2022/01/21 05:02:36;;;;;;;12.18;2.08;;;;;;;-2.65;100.00;102897.31;2568350;30;139502;-41
2022/01/21 05:05:07;;;;;;;7.43;1.95;;;;;;;-2.66;100.00;102884.00;2566100;30;138324;-41
2022/01/21 05:07:37;;;;;;;7.00;1.52;;;;;;;-2.68;100.00;102881.41;2567161;30;137377;-41
2022/01/21 05:10:06;;;;;;;7.80;2.45;;;;;;;-2.61;100.00;102887.34;2567285;30;138598;-41
2022/01/21 05:12:34;;;;;;;7.80;2.13;;;;;;;-2.54;100.00;102888.75;2568019;30;138877;-41
2022/01/21 05:15:11;;;;;;;5.38;1.98;;;;;;;-2.55;100.00;102887.03;2568732;30;139733;-41
2022/01/21 05:17:45;;;;;;;7.78;1.88;;;;;;;-2.59;100.00;102877.44;2568280;30;139345;-41
2022/01/21 05:20:17;;;;;;;6.32;1.92;;;;;;;-2.66;100.00;102884.88;2567066;30;140612;-41
2022/01/21 05:22:50;;;;;;;5.50;1.67;;;;;;;-2.73;100.00;102882.56;2568485;30;138157;-41
2022/01/21 05:25:19;;;;;;;;;;;;;;;-2.77;100.00;102890.75;2566407;30;139254;-41
2022/01/21 05:27:55;;;;;;;7.15;1.73;;;;;;;-2.83;100.00;102880.38;2566228;30;139725;-41
2022/01/21 05:30:23;;;;;;;7.20;1.52;;;;;;;-2.88;100.00;102887.75;2568087;30;139579;-41
2022/01/21 05:33:23;;;;;;;7.50;1.98;;;;;;;-2.85;100.00;102894.72;2567302;30;137603;-41
2022/01/21 05:36:11;;;;;;;5.95;1.90;;;;;;;-2.90;100.00;102902.97;2568604;30;137406;-41
2022/01/21 05:38:56;;;;;;;7.85;2.03;;;;;;;-2.89;100.00;102904.72;2568005;30;137803;-41
2022/01/21 05:41:32;;;;;;;7.65;2.15;;;;;;;-2.87;100.00;102912.63;2567097;30;138391;-41
2022/01/21 05:47:13;;;;;;;9.27;1.83;;;;;;;-2.89;100.00;102904.72;2567962;30;140335;-41
2022/01/21 05:49:59;;;;;;;9.27;2.63;;;;;;;-2.83;100.00;102909.75;2566801;30;137316;-41
2022/01/21 05:52:45;;;;;;;6.50;2.22;;;;;;;-2.78;100.00;102904.19;2566447;30;139968;-41
2022/01/21 05:55:20;;;;;;;6.95;2.72;;;;;;;-2.78;100.00;102906.88;2568700;30;138996;-41
2022/01/21 05:57:55;;;;;;;8.65;2.75;;;;;;;-2.77;100.00;102908.59;2567594;30;138564;-41
2022/01/21 06:00:22;;;;;;;;;;;;;;;-2.77;100.00;102901.44;2568723;30;138512;-40
2022/01/21 06:02:50;;;;;;;6.75;2.35;;;;;;;-2.71;100.00;102907.41;2567961;30;137129;-41
2022/01/21 06:05:19;;;;;;;7.57;2.95;;;;;;;-2.66;100.00;102906.25;2567784;30;137400;-41
2022/01/21 06:07:47;;;;;;;11.32;2.95;;;;;;;-2.68;100.00;102899.25;2568441;30;138615;-42
2022/01/21 06:10:14;;;;;;;;;;;;;;;-2.75;100.00;102907.56;2568141;30;138974;-41
2022/01/21 06:12:42;;;;;;;8.73;3.00;;;;;;;-2.78;100.00;102913.06;2568027;30;138688;-41
2022/01/21 06:15:11;;;;;;;11.00;3.40;;;;;;;-2.75;100.00;102912.91;2565510;30;138845;-41
2022/01/21 06:17:39;;;;;;;12.52;3.80;;;;;;;-2.76;100.00;102905.84;2565320;30;138419;-41
2022/01/21 06:20:07;;;;;;;;;;;;;;;-2.80;100.00;102922.97;2567769;30;137756;-41
2022/01/21 06:22:35;;;;;;;10.35;3.70;;;;;;;-2.79;100.00;102919.34;2567377;30;138140;-41
2022/01/21 06:25:03;;;;;;;;;;;;;;;-2.77;100.00;102925.47;2568603;30;138158;-41
2022/01/21 06:27:33;;;;;;;9.38;2.72;;;;;;;-2.76;100.00;102913.84;2568109;30;139354;-41
2022/01/21 06:30:01;;;;;;;5.85;3.45;;;;;;;-2.72;100.00;102916.38;2568378;30;137638;-41
2022/01/21 06:32:31;;;;;;;;;;;;;;;-2.73;100.00;102920.00;2567355;30;139051;-41
2022/01/21 06:34:59;;;;;;;12.35;3.58;;;;;;;-2.64;100.00;102935.59;2566742;30;137662;-41
2022/01/21 06:37:30;;;;;;;7.18;3.00;;;;;;;-2.69;100.00;102927.78;2566149;30;138369;-41
2022/01/21 06:39:59;;;;;;;12.88;3.17;;;;;;;-2.67;100.00;102938.41;2568698;30;138271;-41
2022/01/21 06:42:29;;;;;;;7.65;3.22;;;;;;;-2.72;100.00;102943.97;2565367;30;138764;-41
2022/01/21 06:44:58;;;;;;;8.20;2.88;;;;;;;-2.73;100.00;102954.72;2567922;30;137470;-41
2022/01/21 06:47:26;;;;;;;7.40;2.97;;;;;;;-2.77;100.00;102965.56;2568410;30;138587;-41
2022/01/21 06:49:58;;;;;;;10.25;3.58;;;;;;;-2.88;100.00;102965.22;2566980;30;137606;-41
2022/01/21 06:52:28;;;;;;;7.40;2.85;;;;;;;-2.92;100.00;102963.59;2567623;30;138363;-41
2022/01/21 06:54:57;;;;;;;12.88;3.47;;;;;;;-2.90;100.00;102964.44;2568078;30;138767;-41
2022/01/21 06:57:27;;;;;;;10.95;3.50;;;;;;;-2.97;100.00;102957.63;2567494;30;138368;-41
2022/01/21 06:59:55;;;;;;;9.68;3.05;;;;;;;-3.06;100.00;102957.09;2567427;30;137030;-41
2022/01/21 07:02:23;;;;;;;7.85;2.83;;;;;;;-3.11;100.00;102964.47;2568328;30;138118;-38
2022/01/21 07:04:51;;;;;;;;;;;;;;;-3.18;100.00;102955.00;2567778;30;137315;-36
2022/01/21 07:07:20;;;;;;;10.20;2.85;;;;;;;-3.23;100.00;102960.56;2567691;30;138184;-36
2022/01/21 07:09:48;;;;;;;13.38;3.30;;;;;;;-3.24;100.00;102965.94;2567880;30;136807;-36
2022/01/21 07:12:16;;;;;;;;;;;;;;;-3.31;100.00;102962.72;2568067;30;138294;-36
2022/01/21 07:14:44;;;;;;;10.93;2.45;;;;;;;-3.39;100.00;102967.50;2567164;30;137008;-35
2022/01/21 07:17:12;;;;;;;;;;;;;;;-3.48;100.00;102961.66;2567606;30;138616;-36
2022/01/21 07:19:40;;;;;;;6.38;2.70;;;;;;;-3.52;100.00;102964.50;2569681;30;137188;-36
2022/01/21 07:22:08;;;;;;;8.48;3.28;;;;;;;-3.55;100.00;102959.31;2567840;30;137516;-36
2022/01/21 07:24:36;;;;;;;12.75;2.80;;;;;;;-3.59;100.00;102955.03;2568474;30;138797;-36
2022/01/21 07:27:03;;;;;;;;;;;;;;;-3.65;100.00;102957.06;2567155;30;138309;-36
2022/01/21 07:29:32;;;;;;;8.82;2.50;;;;;;;-3.66;100.00;102954.44;2566482;30;136862;-36
2022/01/21 07:32:00;;;;;;;11.25;2.88;;;;;;;-3.69;100.00;102967.91;2568678;30;137322;-36
2022/01/21 07:34:28;;;;;;;8.88;2.90;;;;;;;-3.77;100.00;102966.44;2564711;30;137475;-36
2022/01/21 07:36:56;;;;;;;;;;;;;;;-3.78;100.00;102967.38;2567997;30;137789;-36
2022/01/21 07:39:24;;;;;;;7.75;2.63;;;;;;;-3.79;100.00;102972.78;2568204;30;137062;-35
2022/01/21 07:41:52;;;;;;;;;;;;;;;-3.81;100.00;102970.19;2568346;30;139463;-36
2022/01/21 07:44:22;;;;;;;8.32;2.50;;;;;;;-3.80;100.00;102974.59;2568536;30;139273;-36
2022/01/21 07:46:50;;;;;;;6.68;3.05;;;;;;;-3.80;100.00;102976.38;2566486;30;138442;-35
2022/01/21 07:49:18;;;;;;;7.43;2.65;;;;;;;-3.78;100.00;102985.19;2568306;30;137627;-36
2022/01/21 07:51:46;;;;;;;7.70;3.00;;;;;;;-3.77;100.00;102987.78;2566195;30;138542;-36
2022/01/21 07:54:14;;;;;;;7.65;3.13;;;;;;;-3.76;100.00;102999.31;2567678;30;137697;-36
2022/01/21 07:56:42;;;;;;;7.20;2.60;;;;;;;-3.76;100.00;103000.22;2567893;30;139107;-36
2022/01/21 07:59:12;;;;;;;7.90;2.90;;;;;;;-3.77;100.00;103003.81;2568506;30;137286;-35
2022/01/21 08:01:41;;;;;;;8.85;2.90;;;;;;;-3.74;100.00;103013.47;2568922;30;137427;-36
2022/01/21 08:04:09;;;;;;;6.22;2.88;;;;;;;-3.65;100.00;103023.75;2566267;30;138422;-36
2022/01/21 08:06:37;;;;;;;7.15;3.00;;;;;;;-3.58;100.00;103012.81;2568612;30;138609;-36
2022/01/21 08:09:07;;;;;;;9.18;2.70;;;;;;;-3.50;100.00;103008.91;2569083;30;137488;-35
2022/01/21 08:11:35;;;;;;;7.45;2.78;;;;;;;-3.42;100.00;103007.69;2567895;30;139118;-36
2022/01/21 08:14:03;;;;;;;10.23;2.97;;;;;;;-3.33;100.00;102992.13;2567415;30;136731;-36
2022/01/21 08:16:33;;;;;;;;;;;;;;;-3.23;100.00;102981.03;2568014;30;139364;-36
2022/01/21 08:19:03;;;;;;;9.27;3.17;;;;;;;-3.16;100.00;102987.84;2568470;30;139373;-36
2022/01/21 08:21:31;;;;;;;6.13;2.97;;;;;;;-3.03;100.00;102991.69;2567796;30;138478;-36
2022/01/21 08:23:58;;;;;;;;;;;;;;;-2.95;100.00;102987.78;2565477;30;137548;-36
2022/01/21 08:26:28;;;;;;;8.93;3.33;;;;;;;-2.84;100.00;102985.50;2566555;30;138488;-36
2022/01/21 08:28:57;;;;;;;8.55;3.40;;;;;;;-2.79;100.00;102986.16;2567788;30;137322;-36
2022/01/21 08:31:25;;;;;;;6.15;3.45;;;;;;;-2.81;100.00;102982.69;2567858;30;138574;-36
2022/01/21 08:33:53;;;;;;;7.40;3.20;;;;;;;-2.81;100.00;102995.16;2567285;30;137280;-36
2022/01/21 08:36:22;;;;;;;9.05;3.42;;;;;;;-2.80;100.00;102994.22;2566537;30;137870;-36
2022/01/21 08:38:51;;;;;;;9.10;3.80;;;;;;;-2.80;100.00;102992.44;2567501;30;136959;-36
2022/01/21 08:41:19;;;;;;;8.10;3.40;;;;;;;-2.81;100.00;102990.72;2567004;30;137391;-36
2022/01/21 08:43:47;;;;;;;8.73;3.42;;;;;;;-2.81;100.00;102996.06;2566918;30;137150;-35
2022/01/21 08:46:15;;;;;;;10.65;3.67;;;;;;;-2.76;100.00;103001.19;2568303;30;138289;-35
2022/01/21 08:48:44;;;;;;;10.35;3.58;;;;;;;-2.69;100.00;103002.63;2568670;30;136990;-36
2022/01/21 08:51:14;;;;;;;10.57;3.63;;;;;;;-2.59;100.00;103000.41;2567083;30;139355;-36
2022/01/21 08:53:44;;;;;;;11.32;4.30;;;;;;;-2.46;100.00;103001.53;2568294;30;137690;-35
2022/01/21 08:56:14;;;;;;;13.60;3.70;;;;;;;-2.34;100.00;102993.88;2567919;30;138491;-36
2022/01/21 08:58:44;;;;;;;10.07;3.33;;;;;;;-2.19;100.00;102990.44;2569440;30;136808;-36
2022/01/21 09:01:13;;;;;;;7.05;3.72;;;;;;;-2.04;100.00;102986.13;2568701;30;139560;-36
2022/01/21 09:03:42;;;;;;;11.57;4.22;;;;;;;-1.92;100.00;102986.47;2566647;30;138656;-36
2022/01/21 09:06:12;;;;;;;8.77;3.70;;;;;;;-1.83;100.00;102987.84;2568331;30;139516;-36
2022/01/21 09:08:41;;;;;;;8.15;3.42;;;;;;;-1.77;100.00;102990.19;2567822;30;136751;-36
2022/01/21 09:11:09;;;;;;;6.70;3.67;;;;;;;-1.66;100.00;102984.28;2567869;30;138283;-36
2022/01/21 09:13:40;;;;;;;;;;;;;;;-1.54;100.00;102988.16;2569449;30;137078;-36
2022/01/21 09:16:09;;;;;;;9.38;3.95;;;;;;;-1.45;100.00;102991.22;2569179;30;138448;-36
2022/01/21 09:18:46;;;;;;;13.18;4.75;;;;;;;-1.32;100.00;102994.13;2567616;30;138324;-36
2022/01/21 09:21:31;;;;;;;10.43;4.13;;;;;;;-1.22;100.00;102993.63;2567625;30;137969;-36
2022/01/21 09:23:59;;;;;;;12.55;4.38;;;;;;;-1.15;100.00;102997.69;2567054;30;137265;-36
2022/01/21 09:26:28;;;;;;;14.05;5.65;;;;;;;-1.02;100.00;103006.81;2568090;30;139261;-36
2022/01/21 09:28:58;;;;;;;10.27;4.38;;;;;;;-0.90;100.00;103012.47;2568420;30;138346;-36
2022/01/21 09:31:26;;;;;;;8.45;3.83;;;;;;;-0.79;100.00;103010.06;2568558;30;137998;-36
2022/01/21 09:34:14;;;;;;;11.32;4.68;;;;;;;-0.66;100.00;103009.38;2567958;30;137515;-36
2022/01/21 09:36:42;;;;;;;8.73;4.35;;;;;;;-0.53;100.00;103005.09;2564989;30;138723;-36
2022/01/21 09:39:10;;;;;;;;;;;;;;;-0.33;100.00;103011.13;2567401;30;138359;-36
2022/01/21 09:41:42;;;;;;;13.38;4.20;;;;;;;-0.16;100.00;103000.31;2566798;30;138338;-36
2022/01/21 09:44:16;;;;;;;10.05;4.30;;;;;;;-0.02;100.00;102999.50;2568318;30;138099;-36
2022/01/21 09:46:48;;;;;;;14.32;4.80;;;;;;;0.13;100.00;103011.16;2567568;30;137257;-36
2022/01/21 09:49:26;;;;;;;10.18;4.22;;;;;;;0.22;100.00;103006.19;2569129;30;137748;-36
2022/01/21 09:52:03;;;;;;;10.75;4.78;;;;;;;0.30;100.00;103009.31;2569910;30;138145;-36
2022/01/21 09:54:37;;;;;;;10.85;4.35;;;;;;;0.33;100.00;103005.56;2568525;30;137469;-36
2022/01/21 09:57:07;;;;;;;15.52;5.38;;;;;;;0.37;100.00;103009.78;2568384;30;137417;-36
2022/01/21 09:59:37;;;;;;;11.00;3.75;;;;;;;0.40;100.00;103015.00;2568074;30;136920;-36
2022/01/21 10:02:08;;;;;;;10.40;4.32;;;;;;;0.50;100.00;103007.25;2568676;30;136913;-36
2022/01/21 10:04:38;;;;;;;9.90;4.40;;;;;;;0.62;100.00;103001.13;2567020;30;137589;-36
2022/01/21 10:07:10;;;;;;;9.57;4.07;;;;;;;0.81;100.00;103008.09;2568072;30;138025;-36
2022/01/21 10:09:38;;;;;;;11.15;4.63;;;;;;;0.96;100.00;103014.34;2565607;30;137291;-36
2022/01/21 10:12:07;;;;;;;14.30;4.25;;;;;;;1.02;100.00;103013.06;2567237;30;139238;-36
2022/01/21 10:14:34;;;;;;;9.45;3.45;;;;;;;1.03;100.00;103017.47;2567520;30;138124;-36
2022/01/21 10:17:02;;;;;;;;;;;;;;;1.09;100.00;103017.13;2567787;30;138343;-36
2022/01/21 10:19:33;;;;;;;9.55;3.45;;;;;;;1.25;100.00;103023.25;2569431;30;137349;-36
2022/01/21 10:22:03;;;;;;;10.23;3.92;;;;;;;1.43;100.00;103018.53;2567768;30;138553;-36
2022/01/21 10:24:34;;;;;;;8.60;3.13;;;;;;;1.59;100.00;103025.63;2566753;30;138647;-36
2022/01/21 10:27:02;;;;;;;9.38;3.58;;;;;;;1.69;100.00;103023.19;2567655;30;139339;-36
2022/01/21 10:29:56;;;;;;;12.93;3.58;;;;;;;1.76;100.00;103031.75;2566653;30;137517;-36
2022/01/21 10:32:42;;;;;;;10.15;4.03;;;;;;;1.76;100.00;103029.06;2567864;30;137408;-36
2022/01/21 10:35:30;;;;;;;7.85;3.15;;;;;;;1.80;100.00;103025.19;2566617;30;137092;-36
2022/01/21 10:38:15;;;;;;;11.15;3.20;;;;;;;1.85;100.00;103026.59;2568918;30;137572;-35
2022/01/21 10:40:43;;;;;;;11.82;3.55;;;;;;;1.95;100.00;103020.63;2566834;30;138377;-36
2022/01/21 10:43:16;;;;;;;9.18;3.13;;;;;;;2.01;100.00;103020.22;2566411;30;137244;-36
2022/01/21 10:45:59;;;;;;;9.50;3.22;;;;;;;2.07;100.00;103018.94;2566299;30;137765;-36
2022/01/21 10:48:31;;;;;;;10.77;2.63;;;;;;;2.09;100.00;103006.25;2567807;30;137459;-36
2022/01/21 10:51:19;;;;;;;9.02;2.80;;;;;;;2.15;100.00;103014.78;2567281;30;137268;-36
2022/01/21 10:53:47;;;;;;;7.43;3.13;;;;;;;2.21;100.00;103010.78;2567654;30;137802;-36
2022/01/21 10:56:16;;;;;;;;;;;;;;;2.26;100.00;103014.06;2566951;30;138302;-36
2022/01/21 10:58:47;;;;;;;8.93;2.72;;;;;;;2.29;100.00;103008.47;2570052;30;139086;-36
2022/01/21 11:01:21;;;;;;;7.30;2.55;;;;;;;2.38;100.00;103016.88;2567957;30;138393;-36
2022/01/21 11:04:08;;;;;;;7.40;2.40;;;;;;;2.52;100.00;103007.84;2565956;30;138427;-36
2022/01/21 11:06:49;;;;;;;12.50;2.85;;;;;;;2.70;100.00;102997.63;2568500;30;137625;-36
2022/01/21 11:09:21;;;;;;;6.93;2.35;;;;;;;2.90;100.00;102996.22;2568071;30;138042;-36
2022/01/21 11:12:11;;;;;;;10.32;2.90;;;;;;;2.99;100.00;103000.97;2568348;30;137644;-36
2022/01/21 11:14:56;;;;;;;9.35;2.83;;;;;;;3.05;100.00;102996.09;2565189;30;137522;-36
2022/01/21 11:17:24;;;;;;;7.30;2.42;;;;;;;3.03;100.00;102996.19;2566822;30;138121;-36
2022/01/21 11:20:21;;;;;;;8.20;2.60;;;;;;;3.13;100.00;103001.81;2565786;30;139036;-36
2022/01/21 11:23:01;;;;;;;9.20;2.45;;;;;;;3.23;100.00;102991.22;2567729;30;138300;-36
2022/01/21 11:25:42;;;;;;;8.05;2.55;;;;;;;3.21;100.00;102987.78;2567477;30;137722;-36
2022/01/21 11:28:15;;;;;;;7.70;2.78;;;;;;;3.18;100.00;102988.84;2568360;30;136836;-36
2022/01/21 11:30:43;;;;;;;8.80;2.60;;;;;;;3.21;100.00;102980.56;2568464;30;139140;-36
2022/01/21 11:33:11;;;;;;;11.10;2.80;;;;;;;3.28;100.00;102972.84;2569279;30;137708;-36
2022/01/21 11:35:39;;;;;;;7.80;2.60;;;;;;;3.35;100.00;102973.28;2567792;30;139354;-36
2022/01/21 11:38:12;;;;;;;8.85;2.75;;;;;;;3.44;100.00;102968.06;2569351;30;138187;-36
2022/01/21 11:40:41;;;;;;;9.52;3.00;;;;;;;3.48;100.00;102966.03;2567070;30;138405;-36
2022/01/21 11:43:11;;;;;;;7.63;2.22;;;;;;;3.54;100.00;102965.56;2566518;30;137898;-36
2022/01/21 11:48:52;;;;;;;7.97;2.80;;;;;;;3.52;100.00;102963.94;2567293;30;137618;-36
2022/01/21 11:51:31;;;;;;;5.38;2.10;;;;;;;3.56;100.00;102966.31;2567218;30;137810;-36
2022/01/21 11:54:00;;;;;;;5.90;2.33;;;;;;;3.57;100.00;102967.16;2566838;30;137575;-36
2022/01/21 11:56:57;;;;;;;8.88;2.90;;;;;;;3.62;100.00;102964.13;2566979;30;138580;-36
2022/01/21 11:59:51;;;;;;;10.32;2.83;;;;;;;3.55;100.00;102972.69;2566581;30;138372;-36
2022/01/21 12:02:22;;;;;;;7.28;2.70;;;;;;;3.57;100.00;102970.72;2568125;30;139214;-36
2022/01/21 12:04:57;;;;;;;6.95;2.60;;;;;;;3.66;100.00;102965.63;2567156;30;137368;-36
2022/01/21 12:07:34;;;;;;;8.55;2.63;;;;;;;3.73;100.00;102956.97;2568338;30;137406;-36
2022/01/21 12:10:14;;;;;;;7.38;2.63;;;;;;;3.81;100.00;102953.69;2568093;30;138533;-36
2022/01/21 12:15:45;;;;;;;12.20;2.70;;;;;;;3.92;100.00;102952.00;2565287;30;137276;-36
2022/01/21 12:21:29;;;;;;;8.98;2.88;;;;;;;4.06;99.73;102957.22;2568201;30;138266;-36
2022/01/21 12:24:00;;;;;;;12.10;3.10;;;;;;;4.12;100.00;102962.16;2566439;30;138269;-36
2022/01/21 12:26:30;;;;;;;9.13;2.72;;;;;;;4.10;99.72;102955.13;2569172;30;138312;-36